Cincinnati, OH

1:35 PM EDT on September 02, 2015 (GMT -0400)
Clermont County, Batavia | | Change Station
CLOSE
Current Station
Airport
Location: Clermont County, Batavia,
Elevation: 840 ft
Nearby Weather Stations

Elev 840 ft 39.08 °N, 84.21 °W | Updated 21 minutes ago

Partly Cloudy
Partly Cloudy
86 °F
Feels Like 88 °F
N
7
Wind Variable Wind from SW

Today
High -- | Low -- °F
--% Chance of Precip.
Yesterday
High -- | Low -- °F
Precip. -- in
7:07 AM 8:07 PM
Waning Gibbous, 78% visible
Pressure 30.11 in
Visibility 10.0 miles
Clouds Scattered Clouds 3700 ft
Heat Index 88 °F
Dew Point 67 °F
Humidity 52%
Rainfall 0.00 in
Snow Depth Not available.
UV 8 out of 12
Pollen 10.20 out of 12
Air Quality Not available.
Flu Activity Not available.
METAR KI69 021714Z AUTO 23006KT 10SM SCT037 30/19 A3011 RMK AO2 T03000193
Pressure 30.11 in
Visibility 10.0 miles
Clouds Scattered Clouds 3700 ft
Heat Index 88 °F
Dew Point 67 °F
Humidity 52%
Rainfall 0.00 in
Snow Depth Not available.
UV 8 out of 12
Pollen 10.20 out of 12
Air Quality Not available.
Flu Activity Not available.
METAR KI69 021714Z AUTO 23006KT 10SM SCT037 30/19 A3011 RMK AO2 T03000193

10-Day Weather Forecast

×

Almanac

Astronomy

Sep. 02, 2015 Rise Set
Actual Time
Civil Twilight
Nautical Twilight
Astronomical Twilight
Moon
Length of Visible Light
Length of Day
Tomorrow will be .
, % of the Moon is Illuminated

Today's Extremes

State Highs State Lows

Community

WunderPhotos

Upload Photos

1,851,787 photos uploaded!

WunderBlogs® & News

Nearby

Air Quality

  Air Quality AQ Index Pollutant
Not available.

Snow Depth

Station Depth Elevation

Earthquake Activity

City Distance Mag. Time & Date
Minimum magnitude displayed is 2.5.

Coastal Water Temperatures

Place Temperature

Stations

Nearby Weather Stations

Station Location Temp. Windchill Dew Point Humidity Wind Precip. Elev Updated Type